<?xml version="1.0" encoding="UTF-8" standalone="no" ?>
<gpx xmlns="http://www.topografix.com/GPX/1/1" xmlns:xsi="http://www.w3.org/2001/XMLSchema-instance" xsi:schemaLocation="http://www.topografix.com/GPX/1/1 http://www.topografix.com/GPX/1/1/gpx.xsd" version="1.1" creator="VisuGPX - https://www.visugpx.com">
  <metadata>
    <name>attelages aligot trajet aller 14km</name>
  </metadata>
  <trk>
    <name><![CDATA[attelages aligot trajet aller 14km]]></name>
    <trkseg>
      <trkpt lat="48.69035" lon="1.96087">
        <ele>175</ele>
        <time>2021-08-26T10:35:14+02:00</time>
      </trkpt>
      <trkpt lat="48.68403" lon="1.95536">
        <ele>176</ele>
        <time>2021-08-26T10:35:19+02:00</time>
      </trkpt>
      <trkpt lat="48.69376" lon="1.9305">
        <ele>179</ele>
        <time>2021-08-26T10:35:24+02:00</time>
      </trkpt>
      <trkpt lat="48.69808" lon="1.92117">
        <ele>181</ele>
        <time>2021-08-26T10:35:29+02:00</time>
      </trkpt>
      <trkpt lat="48.69616" lon="1.91999">
        <ele>174</ele>
        <time>2021-08-26T10:35:34+02:00</time>
      </trkpt>
      <trkpt lat="48.69561" lon="1.91923">
        <ele>170</ele>
        <time>2021-08-26T10:35:39+02:00</time>
      </trkpt>
      <trkpt lat="48.69474" lon="1.91735">
        <ele>158</ele>
        <time>2021-08-26T10:35:44+02:00</time>
      </trkpt>
      <trkpt lat="48.69437" lon="1.91618">
        <ele>150</ele>
        <time>2021-08-26T10:35:49+02:00</time>
      </trkpt>
      <trkpt lat="48.69364" lon="1.915">
        <ele>137</ele>
        <time>2021-08-26T10:35:54+02:00</time>
      </trkpt>
      <trkpt lat="48.69186" lon="1.91063">
        <ele>144</ele>
        <time>2021-08-26T10:35:59+02:00</time>
      </trkpt>
      <trkpt lat="48.69121" lon="1.90456">
        <ele>177</ele>
        <time>2021-08-26T10:36:04+02:00</time>
      </trkpt>
      <trkpt lat="48.69039" lon="1.90321">
        <ele>182</ele>
        <time>2021-08-26T10:36:09+02:00</time>
      </trkpt>
      <trkpt lat="48.68899" lon="1.9022">
        <ele>183</ele>
        <time>2021-08-26T10:36:14+02:00</time>
      </trkpt>
      <trkpt lat="48.68597" lon="1.89683">
        <ele>182</ele>
        <time>2021-08-26T10:36:19+02:00</time>
      </trkpt>
      <trkpt lat="48.686" lon="1.88535">
        <ele>179</ele>
        <time>2021-08-26T10:36:24+02:00</time>
      </trkpt>
      <trkpt lat="48.68522" lon="1.88289">
        <ele>177</ele>
        <time>2021-08-26T10:36:29+02:00</time>
      </trkpt>
      <trkpt lat="48.68062" lon="1.87034">
        <ele>172</ele>
        <time>2021-08-26T10:36:34+02:00</time>
      </trkpt>
      <trkpt lat="48.6775" lon="1.86562">
        <ele>174</ele>
        <time>2021-08-26T10:36:39+02:00</time>
      </trkpt>
      <trkpt lat="48.67791" lon="1.85844">
        <ele>178</ele>
        <time>2021-08-26T10:36:44+02:00</time>
      </trkpt>
      <trkpt lat="48.67446" lon="1.85692">
        <ele>175</ele>
        <time>2021-08-26T10:36:49+02:00</time>
      </trkpt>
      <trkpt lat="48.67503" lon="1.84652">
        <ele>179</ele>
        <time>2021-08-26T10:36:54+02:00</time>
      </trkpt>
      <trkpt lat="48.66786" lon="1.84291">
        <ele>177</ele>
        <time>2021-08-26T10:36:59+02:00</time>
      </trkpt>
      <trkpt lat="48.66731" lon="1.85369">
        <ele>179</ele>
        <time>2021-08-26T10:37:04+02:00</time>
      </trkpt>
      <trkpt lat="48.66686" lon="1.86181">
        <ele>183</ele>
        <time>2021-08-26T10:37:09+02:00</time>
      </trkpt>
      <trkpt lat="48.66505" lon="1.86403">
        <ele>182</ele>
        <time>2021-08-26T10:37:14+02:00</time>
      </trkpt>
      <trkpt lat="48.66541" lon="1.86458">
        <ele>182</ele>
        <time>2021-08-26T10:37:19+02:00</time>
      </trkpt>
      <trkpt lat="48.66631" lon="1.86479">
        <ele>182</ele>
        <time>2021-08-26T10:37:24+02:00</time>
      </trkpt>
      <trkpt lat="48.66447" lon="1.87422">
        <ele>171</ele>
        <time>2021-08-26T10:37:29+02:00</time>
      </trkpt>
      <trkpt lat="48.66239" lon="1.87859">
        <ele>174</ele>
        <time>2021-08-26T10:37:34+02:00</time>
      </trkpt>
      <trkpt lat="48.66167" lon="1.87999">
        <ele>172</ele>
        <time>2021-08-26T10:37:39+02:00</time>
      </trkpt>
      <trkpt lat="48.66127" lon="1.88001">
        <ele>172</ele>
        <time>2021-08-26T10:37:44+02:00</time>
      </trkpt>
    </trkseg>
  </trk>
</gpx>